Time;durP1;ratioP1;P1;durP2;ratioP2;P2;SDS_P1;SDS_P2;PMS_P1;PMS_P2;Temp;Humidity;BMP_temperature;BMP_pressure;BME280_temperature;BME280_humidity;BME280_pressure;Samples;Min_cycle;Max_cycle;Signal;HPM_P1;HPM_P2
2022/09/29 00:00:10;;;;;;;12.73;10.53;;;;;;;;;;5031219;28;20566;-70
2022/09/29 00:02:35;;;;;;;13.97;10.53;;;;;;;;;;5037025;28;20212;-70
2022/09/29 00:05:01;;;;;;;11.50;10.30;;;;;;;;;;5028626;28;20951;-70
2022/09/29 00:07:31;;;;;;;13.40;10.70;;;;;;;;;;5027687;28;20204;-70
2022/09/29 00:09:56;;;;;;;13.57;10.97;;;;;;;;;;5037081;28;20192;-70
2022/09/29 00:12:22;;;;;;;17.03;11.07;;;;;;;;;;5036845;28;20265;-70
2022/09/29 00:14:47;;;;;;;15.37;11.77;;;;;;;;;;5036741;28;20604;-70
2022/09/29 00:17:13;;;;;;;18.87;12.17;;;;;;;;;;5041819;28;20264;-70
2022/09/29 00:19:38;;;;;;;15.17;11.30;;;;;;;;;;5028029;28;20231;-70
2022/09/29 00:22:04;;;;;;;14.13;11.73;;;;;;;;;;5030391;28;20186;-70
2022/09/29 00:24:30;;;;;;;14.30;11.83;;;;;;;;;;5035257;28;20184;-70
2022/09/29 00:26:55;;;;;;;14.50;11.57;;;;;;;;;;5031349;28;20215;-69
2022/09/29 00:29:21;;;;;;;17.10;11.47;;;;;;;;;;5030098;28;20268;-69
2022/09/29 00:31:46;;;;;;;14.10;11.07;;;;;;;;;;5034630;28;20233;-69
2022/09/29 00:34:11;;;;;;;13.17;11.57;;;;;;;;;;5028566;28;20182;-70
2022/09/29 00:36:37;;;;;;;16.90;11.37;;;;;;;;;;5027931;28;20194;-70
2022/09/29 00:39:02;;;;;;;17.50;13.00;;;;;;;;;;5030176;28;20170;-70
2022/09/29 00:41:31;;;;;;;14.43;11.43;;;;;;;;;;5043519;28;20178;-70
2022/09/29 00:43:58;;;;;;;16.90;11.97;;;;;;;;;;5040038;28;20190;-70
2022/09/29 00:46:42;;;;;;;15.07;12.00;;;;;;;;;;5030139;28;20649;-70
2022/09/29 00:49:14;;;;;;;15.70;11.53;;;;;;;;;;5037998;28;20183;-70
2022/09/29 00:51:46;;;;;;;13.93;11.27;;;;;;;;;;5037844;28;20352;-70
2022/09/29 00:54:12;;;;;;;15.47;12.13;;;;;;;;;;5033125;28;20527;-70
2022/09/29 00:56:40;;;;;;;15.43;12.63;;;;;;;;;;5027540;28;20189;-70
2022/09/29 00:59:11;;;;;;;14.37;11.77;;;;;;;;;;5044109;28;20314;-70
2022/09/29 01:01:37;;;;;;;14.93;11.70;;;;;;;;;;5032639;28;20276;-70
2022/09/29 01:04:07;;;;;;;18.47;12.50;;;;;;;;;;5029448;28;20319;-70
2022/09/29 01:06:38;;;;;;;15.50;11.80;;;;;;;;;;5037826;28;20300;-70
2022/09/29 01:09:12;;;;;;;13.47;10.93;;;;;;;;;;5036593;28;20185;-70
2022/09/29 01:11:38;;;;;;;15.43;11.10;;;;;;;;;;5044688;28;20350;-70
2022/09/29 01:14:06;;;;;;;14.50;11.30;;;;;;;;;;5030847;28;20267;-70
2022/09/29 01:16:33;;;;;;;14.67;11.33;;;;;;;;;;5036266;28;20185;-70
2022/09/29 01:19:01;;;;;;;14.43;11.10;;;;;;;;;;5028876;28;20312;-71
2022/09/29 01:21:48;;;;;;;15.33;11.30;;;;;;;;;;5025991;28;20201;-70
2022/09/29 01:24:56;;;;;;;13.40;9.80;;;;;;;;;;5036791;28;20182;-70
2022/09/29 01:27:49;;;;;;;13.43;10.50;;;;;;;;;;5022735;28;20194;-70
2022/09/29 01:30:27;;;;;;;14.20;10.60;;;;;;;;;;5037904;28;20271;-70
2022/09/29 01:33:01;;;;;;;13.03;11.17;;;;;;;;;;5029807;28;20258;-70
2022/09/29 01:35:42;;;;;;;14.97;11.43;;;;;;;;;;5033367;28;20178;-71
2022/09/29 01:38:08;;;;;;;16.70;10.23;;;;;;;;;;5035766;28;20324;-70
2022/09/29 01:40:39;;;;;;;13.83;11.40;;;;;;;;;;5031606;28;20271;-70
2022/09/29 01:43:14;;;;;;;15.77;11.17;;;;;;;;;;5032528;28;20182;-70
2022/09/29 01:45:46;;;;;;;15.87;12.00;;;;;;;;;;5032243;28;20260;-70
2022/09/29 01:48:18;;;;;;;16.03;12.63;;;;;;;;;;5038150;28;20266;-70
2022/09/29 01:50:48;;;;;;;14.73;11.57;;;;;;;;;;5040203;28;20284;-71
2022/09/29 01:53:28;;;;;;;14.83;11.03;;;;;;;;;;5028766;28;20178;-71
2022/09/29 01:56:00;;;;;;;17.07;11.83;;;;;;;;;;5035039;28;20188;-71
2022/09/29 01:58:32;;;;;;;14.63;11.43;;;;;;;;;;5034831;28;20177;-71
2022/09/29 02:01:02;;;;;;;16.73;12.70;;;;;;;;;;5031648;28;20178;-70
2022/09/29 02:03:34;;;;;;;16.83;12.17;;;;;;;;;;5034959;28;20400;-71
2022/09/29 02:06:09;;;;;;;17.50;12.87;;;;;;;;;;5031150;28;20185;-70
2022/09/29 02:08:55;;;;;;;19.17;13.20;;;;;;;;;;5040865;28;20650;-70
2022/09/29 02:11:21;;;;;;;19.40;13.20;;;;;;;;;;5034438;28;20331;-71
2022/09/29 02:14:12;;;;;;;16.90;13.47;;;;;;;;;;5029827;28;20239;-70
2022/09/29 02:16:44;;;;;;;23.43;15.37;;;;;;;;;;5041014;28;20182;-70
2022/09/29 02:19:19;;;;;;;40.73;18.03;;;;;;;;;;5035847;28;20192;-70
2022/09/29 02:21:45;;;;;;;49.63;19.10;;;;;;;;;;5042625;28;20184;-70
2022/09/29 02:24:11;;;;;;;60.67;18.60;;;;;;;;;;5036606;28;20196;-70
2022/09/29 02:26:37;;;;;;;121.90;24.27;;;;;;;;;;5038822;28;20197;-70
2022/09/29 02:29:05;;;;;;;110.00;24.80;;;;;;;;;;5034504;28;20221;-70
2022/09/29 02:31:31;;;;;;;102.47;23.60;;;;;;;;;;5027930;28;20209;-70
2022/09/29 02:33:58;;;;;;;91.03;23.70;;;;;;;;;;5038617;28;20182;-70
2022/09/29 02:36:39;;;;;;;80.47;22.87;;;;;;;;;;5037316;28;20505;-70
2022/09/29 02:39:19;;;;;;;193.30;26.97;;;;;;;;;;5039043;28;20165;-70
2022/09/29 02:42:11;;;;;;;96.20;21.70;;;;;;;;;;5034296;28;20544;-70
2022/09/29 02:45:11;;;;;;;94.87;24.20;;;;;;;;;;5035443;28;20186;-70
2022/09/29 02:47:50;;;;;;;71.47;21.57;;;;;;;;;;5030098;28;20182;-70
2022/09/29 02:50:47;;;;;;;70.13;19.97;;;;;;;;;;5031751;28;20239;-70
2022/09/29 02:53:34;;;;;;;48.80;19.27;;;;;;;;;;5032920;28;20182;-71
2022/09/29 02:56:21;;;;;;;71.40;22.47;;;;;;;;;;5031358;28;20196;-70
2022/09/29 02:58:56;;;;;;;81.17;21.67;;;;;;;;;;5043582;28;20189;-70
2022/09/29 03:01:22;;;;;;;48.90;20.17;;;;;;;;;;5036430;28;20269;-70
2022/09/29 03:03:47;;;;;;;59.17;20.53;;;;;;;;;;5032318;28;20205;-70
2022/09/29 03:06:15;;;;;;;53.13;19.67;;;;;;;;;;5029911;28;20649;-71
2022/09/29 03:08:40;;;;;;;87.73;22.33;;;;;;;;;;5030192;28;20189;-71
2022/09/29 03:11:06;;;;;;;39.07;20.57;;;;;;;;;;5027665;28;20208;-71
2022/09/29 03:13:31;;;;;;;47.70;20.17;;;;;;;;;;5031962;28;20190;-71
2022/09/29 03:15:56;;;;;;;60.93;20.27;;;;;;;;;;5032925;28;20186;-70
2022/09/29 03:18:23;;;;;;;60.70;19.77;;;;;;;;;;5032956;28;20229;-70
2022/09/29 03:20:48;;;;;;;84.87;22.10;;;;;;;;;;5028814;28;20196;-70
2022/09/29 03:23:14;;;;;;;81.80;22.20;;;;;;;;;;5029914;28;20261;-70
2022/09/29 03:25:40;;;;;;;85.93;20.73;;;;;;;;;;5030090;28;20201;-70
2022/09/29 03:28:06;;;;;;;68.53;20.33;;;;;;;;;;5030108;28;20190;-70
2022/09/29 03:30:31;;;;;;;183.17;24.43;;;;;;;;;;5034624;28;20229;-70
2022/09/29 03:32:56;;;;;;;79.47;20.07;;;;;;;;;;5032791;28;20205;-70
2022/09/29 03:35:22;;;;;;;236.73;26.77;;;;;;;;;;5031907;28;20170;-70
2022/09/29 03:37:47;;;;;;;80.13;19.27;;;;;;;;;;5035753;28;20193;-70
2022/09/29 03:40:13;;;;;;;42.83;18.77;;;;;;;;;;5033586;28;20186;-70
2022/09/29 03:42:39;;;;;;;54.20;19.40;;;;;;;;;;5033254;28;20221;-70
2022/09/29 03:45:04;;;;;;;66.93;18.73;;;;;;;;;;5032942;28;20263;-71
2022/09/29 03:47:30;;;;;;;69.13;18.27;;;;;;;;;;5035762;28;20182;-70
2022/09/29 03:49:55;;;;;;;114.17;19.80;;;;;;;;;;5032218;28;20174;-70
2022/09/29 03:52:21;;;;;;;74.43;17.70;;;;;;;;;;5030343;28;20514;-70
2022/09/29 03:54:46;;;;;;;63.87;19.07;;;;;;;;;;5035220;28;20188;-70
2022/09/29 03:57:11;;;;;;;107.90;18.47;;;;;;;;;;5029310;28;20677;-70
2022/09/29 03:59:37;;;;;;;88.73;18.20;;;;;;;;;;5031147;28;20642;-70
2022/09/29 04:02:02;;;;;;;89.37;17.27;;;;;;;;;;5028780;28;20258;-70
2022/09/29 04:04:28;;;;;;;90.87;17.93;;;;;;;;;;5044651;28;20675;-70
2022/09/29 04:06:53;;;;;;;145.53;19.13;;;;;;;;;;5029755;28;20178;-70
2022/09/29 04:09:19;;;;;;;113.63;19.20;;;;;;;;;;5033021;28;20174;-70
2022/09/29 04:11:44;;;;;;;87.73;17.83;;;;;;;;;;5031964;28;20210;-71
2022/09/29 04:14:09;;;;;;;61.40;16.67;;;;;;;;;;5032081;28;20182;-70
2022/09/29 04:16:35;;;;;;;49.07;15.53;;;;;;;;;;5041721;28;20185;-71
2022/09/29 04:19:00;;;;;;;96.97;17.83;;;;;;;;;;5034248;28;20185;-70
2022/09/29 04:21:25;;;;;;;87.43;17.37;;;;;;;;;;5033886;28;20433;-70
2022/09/29 04:23:51;;;;;;;94.80;17.73;;;;;;;;;;5029962;28;20185;-70
2022/09/29 04:26:16;;;;;;;75.70;18.27;;;;;;;;;;5033867;28;20189;-70
2022/09/29 04:28:42;;;;;;;92.97;18.17;;;;;;;;;;5037613;28;20190;-71
2022/09/29 04:31:07;;;;;;;140.47;19.40;;;;;;;;;;5027118;28;20255;-70
2022/09/29 04:33:33;;;;;;;73.33;17.97;;;;;;;;;;5036784;28;20524;-70
2022/09/29 04:35:59;;;;;;;111.13;18.80;;;;;;;;;;5039731;28;20328;-70
2022/09/29 04:38:25;;;;;;;94.40;18.07;;;;;;;;;;5034157;28;20672;-70
2022/09/29 04:40:51;;;;;;;140.20;20.93;;;;;;;;;;5029257;28;20189;-71
2022/09/29 04:43:16;;;;;;;126.17;20.23;;;;;;;;;;5032461;28;20519;-70
2022/09/29 04:45:42;;;;;;;84.33;19.00;;;;;;;;;;5035377;28;20200;-71
2022/09/29 04:48:07;;;;;;;87.77;18.50;;;;;;;;;;5033385;28;20177;-71
2022/09/29 04:50:33;;;;;;;115.00;18.73;;;;;;;;;;5028322;28;20209;-70
2022/09/29 04:52:58;;;;;;;112.37;18.57;;;;;;;;;;5034880;28;20196;-70
2022/09/29 04:55:24;;;;;;;54.27;16.13;;;;;;;;;;5028895;28;20229;-71
2022/09/29 04:57:50;;;;;;;83.33;17.60;;;;;;;;;;5026139;28;20186;-70
2022/09/29 05:00:16;;;;;;;91.03;16.97;;;;;;;;;;5034211;28;20231;-70
2022/09/29 05:02:41;;;;;;;76.90;17.30;;;;;;;;;;5040033;28;20682;-70
2022/09/29 05:05:08;;;;;;;84.10;18.47;;;;;;;;;;5031736;28;20193;-70
2022/09/29 05:07:34;;;;;;;130.10;19.40;;;;;;;;;;5027619;28;20193;-70
2022/09/29 05:09:59;;;;;;;83.83;18.40;;;;;;;;;;5026697;28;20182;-70
2022/09/29 05:12:24;;;;;;;58.30;17.33;;;;;;;;;;5028401;28;20190;-70
2022/09/29 05:14:50;;;;;;;83.77;18.77;;;;;;;;;;5029235;28;20256;-70
2022/09/29 05:17:15;;;;;;;61.73;17.20;;;;;;;;;;5037494;28;20567;-70
2022/09/29 05:19:40;;;;;;;68.30;18.43;;;;;;;;;;5026853;28;20607;-70
2022/09/29 05:22:06;;;;;;;127.10;20.23;;;;;;;;;;5030515;28;20193;-70
2022/09/29 05:24:31;;;;;;;58.93;18.97;;;;;;;;;;5028678;28;20582;-70
2022/09/29 05:26:57;;;;;;;159.17;22.43;;;;;;;;;;5036817;28;20738;-70
2022/09/29 05:29:22;;;;;;;118.57;20.10;;;;;;;;;;5039754;28;20815;-71
2022/09/29 05:31:48;;;;;;;114.03;20.40;;;;;;;;;;5027186;28;20763;-71
2022/09/29 05:34:13;;;;;;;59.77;19.20;;;;;;;;;;5032119;28;20736;-71
2022/09/29 05:36:39;;;;;;;75.77;18.80;;;;;;;;;;5027519;28;20424;-71
2022/09/29 05:39:04;;;;;;;91.60;19.17;;;;;;;;;;5048264;28;20182;-70
2022/09/29 05:41:29;;;;;;;75.63;20.37;;;;;;;;;;5042250;28;20226;-70
2022/09/29 05:43:55;;;;;;;83.20;21.03;;;;;;;;;;5036594;28;20185;-70
2022/09/29 05:46:21;;;;;;;59.27;19.60;;;;;;;;;;5049824;28;20208;-70
2022/09/29 05:48:49;;;;;;;40.23;19.67;;;;;;;;;;5031580;28;20182;-70
2022/09/29 05:51:18;;;;;;;62.57;20.90;;;;;;;;;;5036008;28;20201;-70
2022/09/29 05:53:43;;;;;;;48.43;17.87;;;;;;;;;;5040072;28;20173;-70
2022/09/29 05:56:14;;;;;;;59.27;19.63;;;;;;;;;;5040791;28;20182;-70
2022/09/29 05:58:40;;;;;;;39.40;19.90;;;;;;;;;;5042007;28;20174;-70
2022/09/29 06:01:12;;;;;;;36.67;17.90;;;;;;;;;;5030777;28;20177;-70
2022/09/29 06:03:38;;;;;;;66.80;20.77;;;;;;;;;;5032097;28;20668;-70
2022/09/29 06:06:08;;;;;;;44.27;20.43;;;;;;;;;;5034965;28;20182;-70
2022/09/29 06:08:33;;;;;;;70.13;20.93;;;;;;;;;;5032489;28;20186;-70
2022/09/29 06:11:07;;;;;;;62.07;22.03;;;;;;;;;;5032608;28;20217;-70
2022/09/29 06:13:33;;;;;;;57.47;21.53;;;;;;;;;;5042395;28;20326;-70
2022/09/29 06:16:00;;;;;;;54.37;21.17;;;;;;;;;;5031131;28;20548;-70
2022/09/29 06:18:25;;;;;;;86.37;23.30;;;;;;;;;;5030220;28;20802;-70
2022/09/29 06:20:51;;;;;;;76.67;20.47;;;;;;;;;;5044932;28;20296;-70
2022/09/29 06:23:16;;;;;;;56.13;20.57;;;;;;;;;;5033974;28;20698;-70
2022/09/29 06:25:41;;;;;;;69.27;19.40;;;;;;;;;;5046609;28;20194;-70
2022/09/29 06:28:07;;;;;;;66.27;20.63;;;;;;;;;;5050194;28;20276;-71
2022/09/29 06:30:32;;;;;;;58.07;19.97;;;;;;;;;;5041449;28;20604;-70
2022/09/29 06:32:57;;;;;;;55.10;20.13;;;;;;;;;;5043678;28;20724;-70
2022/09/29 06:38:07;;;;;;;86.37;19.97;;;;;;;;;;5044631;28;20199;-70
2022/09/29 06:40:32;;;;;;;64.73;19.57;;;;;;;;;;5036139;28;20181;-71
2022/09/29 06:42:58;;;;;;;62.97;20.97;;;;;;;;;;5039406;28;20188;-70
2022/09/29 06:45:23;;;;;;;65.07;20.50;;;;;;;;;;5033788;28;20177;-70
2022/09/29 06:47:48;;;;;;;36.90;18.97;;;;;;;;;;5039400;28;20247;-70
2022/09/29 06:50:14;;;;;;;46.57;18.77;;;;;;;;;;5032833;28;20185;-71
2022/09/29 06:52:39;;;;;;;53.60;18.33;;;;;;;;;;5038947;28;20255;-71
2022/09/29 06:55:05;;;;;;;40.67;18.80;;;;;;;;;;5044171;28;20396;-71
2022/09/29 06:57:30;;;;;;;41.87;19.23;;;;;;;;;;5045930;28;20419;-71
2022/09/29 06:59:56;;;;;;;57.90;19.57;;;;;;;;;;5047327;28;20628;-70
2022/09/29 07:02:21;;;;;;;35.70;19.67;;;;;;;;;;5036954;28;20615;-70
2022/09/29 07:04:47;;;;;;;42.03;19.90;;;;;;;;;;5038774;28;20213;-70
2022/09/29 07:07:13;;;;;;;54.93;18.80;;;;;;;;;;5041394;28;20584;-70
2022/09/29 07:09:39;;;;;;;42.13;18.43;;;;;;;;;;5029560;28;20201;-69
2022/09/29 07:12:04;;;;;;;45.53;19.60;;;;;;;;;;5029858;28;20210;-69
2022/09/29 07:14:30;;;;;;;46.97;18.67;;;;;;;;;;5038529;28;20513;-68
2022/09/29 07:16:57;;;;;;;25.67;18.17;;;;;;;;;;5040420;28;20182;-69
2022/09/29 07:19:23;;;;;;;77.63;21.40;;;;;;;;;;5031585;28;20263;-69
2022/09/29 07:21:49;;;;;;;44.17;19.53;;;;;;;;;;5048178;28;20539;-70
2022/09/29 07:24:14;;;;;;;39.93;19.63;;;;;;;;;;5038303;28;20186;-70
2022/09/29 07:26:40;;;;;;;32.27;19.60;;;;;;;;;;5043164;28;20548;-71
2022/09/29 07:29:05;;;;;;;58.97;19.37;;;;;;;;;;5037899;28;20237;-70
2022/09/29 07:31:30;;;;;;;48.37;18.43;;;;;;;;;;5042378;28;20235;-70
2022/09/29 07:33:56;;;;;;;46.90;18.77;;;;;;;;;;5033079;28;20565;-70
2022/09/29 07:36:22;;;;;;;35.77;19.10;;;;;;;;;;5038966;28;20193;-71
2022/09/29 07:38:49;;;;;;;41.27;19.57;;;;;;;;;;5042115;28;20272;-70
2022/09/29 07:41:16;;;;;;;37.47;18.07;;;;;;;;;;5033348;28;20181;-70
2022/09/29 07:43:42;;;;;;;38.03;20.07;;;;;;;;;;5033793;28;20178;-71
2022/09/29 07:46:08;;;;;;;40.37;18.83;;;;;;;;;;5036373;28;20285;-70
2022/09/29 07:48:35;;;;;;;35.90;20.33;;;;;;;;;;5032493;28;20469;-70
2022/09/29 07:51:12;;;;;;;26.50;19.97;;;;;;;;;;5035173;28;20307;-70
2022/09/29 07:53:38;;;;;;;31.93;20.10;;;;;;;;;;5040097;28;20259;-71
2022/09/29 07:56:07;;;;;;;34.20;20.10;;;;;;;;;;5039178;28;20244;-70
2022/09/29 07:58:33;;;;;;;27.60;20.93;;;;;;;;;;5039468;28;20194;-70
2022/09/29 08:01:00;;;;;;;31.00;20.80;;;;;;;;;;5038617;28;20592;-70
2022/09/29 08:03:26;;;;;;;30.93;21.20;;;;;;;;;;5045789;28;20327;-71
2022/09/29 08:05:52;;;;;;;58.60;23.13;;;;;;;;;;5038802;28;20269;-70
2022/09/29 08:08:17;;;;;;;29.83;21.13;;;;;;;;;;5044865;28;20197;-71
2022/09/29 08:10:43;;;;;;;31.43;22.50;;;;;;;;;;5031641;28;20551;-70
2022/09/29 08:13:08;;;;;;;33.60;21.87;;;;;;;;;;5037777;28;20224;-70
2022/09/29 08:15:34;;;;;;;28.20;21.50;;;;;;;;;;5033723;28;20186;-70
2022/09/29 08:17:59;;;;;;;31.67;23.10;;;;;;;;;;5040485;28;20529;-70
2022/09/29 08:20:25;;;;;;;30.10;20.97;;;;;;;;;;5034567;28;20831;-69
2022/09/29 08:22:54;;;;;;;30.23;23.23;;;;;;;;;;5036625;28;20193;-70
2022/09/29 08:25:20;;;;;;;34.70;24.33;;;;;;;;;;5043665;28;20231;-70
2022/09/29 08:27:45;;;;;;;41.20;26.77;;;;;;;;;;5046123;28;20700;-70
2022/09/29 08:30:11;;;;;;;38.00;23.87;;;;;;;;;;5045706;28;20256;-70
2022/09/29 08:32:38;;;;;;;29.93;23.33;;;;;;;;;;5034205;28;20572;-71
2022/09/29 08:35:04;;;;;;;38.47;24.60;;;;;;;;;;5038116;28;20192;-70
2022/09/29 08:37:30;;;;;;;31.90;23.20;;;;;;;;;;5038539;28;20225;-70
2022/09/29 08:39:55;;;;;;;32.33;24.03;;;;;;;;;;5041519;28;20181;-70
2022/09/29 08:42:58;;;;;;;36.97;25.97;;;;;;;;;;5032001;28;20669;-71
2022/09/29 08:45:29;;;;;;;34.33;24.90;;;;;;;;;;5024825;28;20287;-71
2022/09/29 08:48:03;;;;;;;34.40;26.07;;;;;;;;;;5038726;28;20247;-70
2022/09/29 08:50:57;;;;;;;36.60;27.47;;;;;;;;;;5034646;28;20201;-70
2022/09/29 08:53:25;;;;;;;34.63;26.53;;;;;;;;;;5035190;28;20656;-70
2022/09/29 08:55:52;;;;;;;36.93;26.67;;;;;;;;;;5037887;28;20186;-70
2022/09/29 08:58:18;;;;;;;38.20;26.80;;;;;;;;;;5036250;28;20181;-70
2022/09/29 09:01:05;;;;;;;38.70;28.83;;;;;;;;;;5029994;28;20205;-70
2022/09/29 09:03:52;;;;;;;37.78;29.40;;;;;;;;;;5034669;28;20181;-70
2022/09/29 09:06:32;;;;;;;41.63;29.40;;;;;;;;;;5032251;28;20224;-70
2022/09/29 09:09:18;;;;;;;38.47;27.43;;;;;;;;;;5028979;28;20186;-70
2022/09/29 09:12:06;;;;;;;42.60;29.73;;;;;;;;;;5034945;28;20595;-69
2022/09/29 09:14:44;;;;;;;42.10;31.33;;;;;;;;;;5032287;28;20181;-70
2022/09/29 09:17:43;;;;;;;40.17;29.05;;;;;;;;;;5034246;28;20182;-69
2022/09/29 09:20:15;;;;;;;40.25;30.00;;;;;;;;;;5039322;28;20201;-69
2022/09/29 09:22:56;;;;;;;39.90;29.27;;;;;;;;;;5027161;28;20239;-69
2022/09/29 09:25:29;;;;;;;45.22;30.40;;;;;;;;;;5034939;28;20243;-70
2022/09/29 09:28:17;;;;;;;33.03;23.55;;;;;;;;;;5033280;28;20637;-69
2022/09/29 09:30:53;;;;;;;41.63;30.17;;;;;;;;;;5036489;28;20677;-70
2022/09/29 09:33:26;;;;;;;36.85;27.52;;;;;;;;;;5043785;28;20216;-70
2022/09/29 09:35:57;;;;;;;36.88;28.27;;;;;;;;;;5037601;28;20286;-70
2022/09/29 09:38:27;;;;;;;37.55;27.83;;;;;;;;;;5039983;28;20641;-70
2022/09/29 09:40:56;;;;;;;35.95;27.92;;;;;;;;;;5032056;28;20205;-70
2022/09/29 09:43:30;;;;;;;38.58;28.50;;;;;;;;;;5031724;28;20206;-70
2022/09/29 09:46:20;;;;;;;40.72;28.73;;;;;;;;;;5041643;28;20173;-70
2022/09/29 09:49:05;;;;;;;40.65;28.65;;;;;;;;;;5034302;28;20281;-69
2022/09/29 09:51:37;;;;;;;39.65;28.92;;;;;;;;;;5033171;28;20553;-70
2022/09/29 09:54:09;;;;;;;41.00;28.80;;;;;;;;;;5026717;28;20201;-70
2022/09/29 09:56:37;;;;;;;45.15;29.25;;;;;;;;;;5047207;28;20209;-70
2022/09/29 09:59:16;;;;;;;43.88;30.45;;;;;;;;;;5036833;28;20690;-70
2022/09/29 10:01:41;;;;;;;42.38;29.65;;;;;;;;;;5032160;28;20178;-70
2022/09/29 10:04:11;;;;;;;41.72;29.65;;;;;;;;;;5031334;28;20189;-70
2022/09/29 10:06:36;;;;;;;44.25;31.90;;;;;;;;;;5038116;28;20532;-70
2022/09/29 10:09:02;;;;;;;43.95;30.10;;;;;;;;;;5035517;28;20197;-71
2022/09/29 10:11:30;;;;;;;41.38;30.85;;;;;;;;;;5031487;28;20206;-70
2022/09/29 10:13:58;;;;;;;38.55;28.55;;;;;;;;;;5042439;28;20186;-69
2022/09/29 10:16:29;;;;;;;45.15;30.25;;;;;;;;;;5032069;28;20205;-70
2022/09/29 10:18:54;;;;;;;41.85;30.23;;;;;;;;;;5030953;28;20217;-69
2022/09/29 10:21:37;;;;;;;41.75;31.38;;;;;;;;;;5036261;28;20209;-69
2022/09/29 10:24:07;;;;;;;38.85;29.40;;;;;;;;;;5049358;28;20196;-69
2022/09/29 10:26:39;;;;;;;44.97;31.05;;;;;;;;;;5030723;28;20255;-70
2022/09/29 10:29:23;;;;;;;41.60;30.52;;;;;;;;;;5034273;28;20237;-69
2022/09/29 10:32:20;;;;;;;41.00;30.13;;;;;;;;;;5030804;28;20233;-69
2022/09/29 10:34:50;;;;;;;38.03;28.48;;;;;;;;;;5030634;28;20210;-68
2022/09/29 10:37:34;;;;;;;40.50;29.25;;;;;;;;;;5042893;28;20174;-68
2022/09/29 10:40:11;;;;;;;34.42;25.95;;;;;;;;;;5040831;28;20185;-69
2022/09/29 10:42:39;;;;;;;32.42;23.38;;;;;;;;;;5048568;28;20608;-69
2022/09/29 10:45:17;;;;;;;33.15;24.40;;;;;;;;;;5045252;28;20584;-69
2022/09/29 10:47:58;;;;;;;33.80;24.85;;;;;;;;;;5031769;28;20758;-68
2022/09/29 10:50:25;;;;;;;32.08;24.92;;;;;;;;;;5031510;28;20178;-68
2022/09/29 10:52:56;;;;;;;36.95;24.75;;;;;;;;;;5039514;28;20181;-68
2022/09/29 10:55:23;;;;;;;26.17;19.98;;;;;;;;;;5033756;28;20275;-69
2022/09/29 10:57:50;;;;;;;28.10;19.88;;;;;;;;;;5048338;28;20671;-68
2022/09/29 11:00:36;;;;;;;26.30;20.25;;;;;;;;;;5043781;28;20190;-68
2022/09/29 11:03:16;;;;;;;26.90;19.55;;;;;;;;;;5031709;28;20213;-69
2022/09/29 11:05:58;;;;;;;26.35;19.60;;;;;;;;;;5032663;28;20189;-69
2022/09/29 11:08:27;;;;;;;25.05;18.55;;;;;;;;;;5048188;28;20292;-67
2022/09/29 11:11:16;;;;;;;25.50;18.30;;;;;;;;;;5047719;28;20193;-68
2022/09/29 11:13:44;;;;;;;23.13;17.90;;;;;;;;;;5035777;28;20696;-68
2022/09/29 11:16:18;;;;;;;24.95;18.05;;;;;;;;;;5048144;28;20165;-68
2022/09/29 11:18:47;;;;;;;20.73;15.77;;;;;;;;;;5043690;28;20658;-68
2022/09/29 11:21:19;;;;;;;19.23;16.35;;;;;;;;;;5048026;28;20260;-68
2022/09/29 11:23:55;;;;;;;20.58;16.10;;;;;;;;;;5038194;28;20193;-68
2022/09/29 11:26:34;;;;;;;18.13;13.25;;;;;;;;;;5028554;28;20596;-69
2022/09/29 11:29:19;;;;;;;16.50;13.45;;;;;;;;;;5028993;28;20565;-68
2022/09/29 11:31:51;;;;;;;19.10;13.73;;;;;;;;;;5045993;28;20205;-68
2022/09/29 11:34:25;;;;;;;18.15;13.05;;;;;;;;;;5039405;28;20200;-68
2022/09/29 11:37:12;;;;;;;18.67;13.32;;;;;;;;;;5028841;28;20178;-68
2022/09/29 11:39:56;;;;;;;15.82;12.70;;;;;;;;;;5040866;28;20582;-68
2022/09/29 11:42:21;;;;;;;17.55;12.93;;;;;;;;;;5041317;28;21026;-67
2022/09/29 11:44:57;;;;;;;17.85;11.70;;;;;;;;;;5029430;28;20190;-68
2022/09/29 11:47:25;;;;;;;18.48;13.73;;;;;;;;;;5036170;28;20173;-68
2022/09/29 11:50:06;;;;;;;16.85;11.98;;;;;;;;;;5036589;28;20741;-68
2022/09/29 11:52:53;;;;;;;16.67;13.30;;;;;;;;;;5035781;28;20692;-68
2022/09/29 11:55:44;;;;;;;16.55;12.68;;;;;;;;;;5046919;28;20556;-68
2022/09/29 11:58:58;;;;;;;14.20;10.43;;;;;;;;;;5043509;28;20261;-67
2022/09/29 12:01:38;;;;;;;10.05;8.13;;;;;;;;;;5033172;28;20498;-67
2022/09/29 12:04:39;;;;;;;10.48;8.43;;;;;;;;;;5043147;28;20181;-68
2022/09/29 12:07:34;;;;;;;10.50;9.35;;;;;;;;;;5027694;28;20184;-68
2022/09/29 12:10:22;;;;;;;9.73;8.13;;;;;;;;;;5029306;28;20220;-68
2022/09/29 12:13:05;;;;;;;11.63;7.90;;;;;;;;;;5045583;28;20185;-68
2022/09/29 12:15:46;;;;;;;11.93;8.02;;;;;;;;;;5048592;28;20197;-68
2022/09/29 12:18:20;;;;;;;10.30;8.60;;;;;;;;;;5048747;28;20215;-68
2022/09/29 12:20:49;;;;;;;10.68;7.80;;;;;;;;;;5040103;28;20193;-68
2022/09/29 12:23:18;;;;;;;9.20;8.25;;;;;;;;;;5036264;28;20579;-68
2022/09/29 12:25:54;;;;;;;9.60;7.80;;;;;;;;;;5047946;28;20201;-68
2022/09/29 12:28:26;;;;;;;8.77;6.65;;;;;;;;;;5030760;28;20247;-68
2022/09/29 12:31:00;;;;;;;6.97;4.60;;;;;;;;;;5043430;28;20257;-68
2022/09/29 12:33:33;;;;;;;5.88;4.90;;;;;;;;;;5045770;28;20260;-67
2022/09/29 12:36:42;;;;;;;5.88;4.70;;;;;;;;;;5046308;28;20204;-68
2022/09/29 12:39:01;;;;;;;5.78;5.18;;;;;;;;;;5036162;28;20197;-68
2022/09/29 12:41:34;;;;;;;6.97;5.20;;;;;;;;;;5049421;28;20260;-68
2022/09/29 12:44:19;;;;;;;6.30;5.20;;;;;;;;;;5033264;28;20490;-68
2022/09/29 12:46:54;;;;;;;7.18;5.80;;;;;;;;;;5037785;28;20185;-68
2022/09/29 12:49:32;;;;;;;9.10;5.80;;;;;;;;;;5029275;28;20752;-69
2022/09/29 12:51:58;;;;;;;5.65;3.72;;;;;;;;;;5042185;28;20216;-68
2022/09/29 12:54:43;;;;;;;7.55;3.53;;;;;;;;;;5037906;28;20633;-68
2022/09/29 12:57:14;;;;;;;4.38;2.83;;;;;;;;;;5045142;28;20315;-68
2022/09/29 13:00:14;;;;;;;3.83;3.28;;;;;;;;;;5032361;28;20178;-68
2022/09/29 13:03:15;;;;;;;6.50;4.60;;;;;;;;;;5024981;28;20194;-68
2022/09/29 13:06:00;;;;;;;6.97;4.57;;;;;;;;;;5038408;28;20255;-68
2022/09/29 13:08:48;;;;;;;6.05;4.10;;;;;;;;;;5037894;28;20181;-68
2022/09/29 13:11:41;;;;;;;7.05;4.18;;;;;;;;;;4333252;28;10000700;-68
2022/09/29 13:14:24;;;;;;;6.75;3.40;;;;;;;;;;5040336;28;20240;-69
2022/09/29 13:17:37;;;;;;;6.97;4.10;;;;;;;;;;5025791;28;20194;-69
2022/09/29 13:20:18;;;;;;;4.38;3.63;;;;;;;;;;5026310;28;20246;-68
2022/09/29 13:22:56;;;;;;;5.57;4.63;;;;;;;;;;5036111;28;20189;-69
2022/09/29 13:25:58;;;;;;;5.75;4.32;;;;;;;;;;5030715;28;20268;-69
2022/09/29 13:28:41;;;;;;;6.50;4.60;;;;;;;;;;5036130;28;20263;-69
2022/09/29 13:31:11;;;;;;;7.40;4.18;;;;;;;;;;5035998;28;20251;-69
2022/09/29 13:33:37;;;;;;;6.55;3.95;;;;;;;;;;5026630;28;20186;-68
2022/09/29 13:36:03;;;;;;;5.70;4.50;;;;;;;;;;5036142;28;20204;-69
2022/09/29 13:38:34;;;;;;;4.50;3.45;;;;;;;;;;5039069;28;20185;-69
2022/09/29 13:41:22;;;;;;;5.75;3.70;;;;;;;;;;5026686;28;20189;-68
2022/09/29 13:43:50;;;;;;;4.20;3.20;;;;;;;;;;5027400;28;20178;-69
2022/09/29 13:46:26;;;;;;;3.40;3.00;;;;;;;;;;5032657;28;20303;-69
2022/09/29 13:48:53;;;;;;;5.20;3.50;;;;;;;;;;5035236;28;20236;-69
2022/09/29 13:51:41;;;;;;;4.40;3.60;;;;;;;;;;5026901;28;20205;-69
2022/09/29 13:54:27;;;;;;;5.65;3.25;;;;;;;;;;5034349;28;20186;-69
2022/09/29 13:57:11;;;;;;;4.32;3.33;;;;;;;;;;5030944;28;20289;-69
2022/09/29 13:59:38;;;;;;;4.05;2.97;;;;;;;;;;5034725;28;20233;-68
2022/09/29 14:02:37;;;;;;;5.57;2.80;;;;;;;;;;5037226;28;20174;-68
2022/09/29 14:05:26;;;;;;;3.42;2.78;;;;;;;;;;5032682;28;20201;-69
2022/09/29 14:07:54;;;;;;;4.03;2.40;;;;;;;;;;5033900;28;20198;-69
2022/09/29 14:10:36;;;;;;;5.47;3.22;;;;;;;;;;5035047;28;20273;-68
2022/09/29 14:13:16;;;;;;;4.03;2.70;;;;;;;;;;5035572;28;20181;-69
2022/09/29 14:15:51;;;;;;;5.43;3.22;;;;;;;;;;5030571;28;20216;-69
2022/09/29 14:18:42;;;;;;;4.95;2.50;;;;;;;;;;5032366;28;20625;-68
2022/09/29 14:21:10;;;;;;;4.45;2.78;;;;;;;;;;5031278;28;20661;-68
2022/09/29 14:23:45;;;;;;;3.38;2.80;;;;;;;;;;5033951;28;20170;-69
2022/09/29 14:26:47;;;;;;;4.10;2.28;;;;;;;;;;5030288;28;20610;-69
2022/09/29 14:29:27;;;;;;;5.43;2.38;;;;;;;;;;5030717;28;20611;-68
2022/09/29 14:31:56;;;;;;;4.78;2.60;;;;;;;;;;5041593;28;20217;-68
2022/09/29 14:34:25;;;;;;;3.90;2.08;;;;;;;;;;5039799;28;20653;-68
2022/09/29 14:36:53;;;;;;;3.17;2.22;;;;;;;;;;5039221;28;20221;-68
2022/09/29 14:39:19;;;;;;;3.80;2.50;;;;;;;;;;5036790;28;20182;-69
2022/09/29 14:41:48;;;;;;;6.50;2.10;;;;;;;;;;5033014;28;20201;-69
2022/09/29 14:51:56;;;;;;;3.13;2.40;;;;;;;;;;5032100;28;20185;-69
2022/09/29 14:54:25;;;;;;;3.25;2.40;;;;;;;;;;5032262;28;20239;-69
2022/09/29 14:57:35;;;;;;;5.10;2.78;;;;;;;;;;5029952;28;20264;-70
2022/09/29 15:00:10;;;;;;;4.47;3.08;;;;;;;;;;5031568;28;20182;-70